Time;durP1;ratioP1;P1;durP2;ratioP2;P2;SDS_P1;SDS_P2;PMS_P1;PMS_P2;Temp;Humidity;BMP_temperature;BMP_pressure;BME280_temperature;BME280_humidity;BME280_pressure;Samples;Min_cycle;Max_cycle;Signal;HPM_P1;HPM_P2
2023/06/12 00:02:07;;;;;;;0.00;0.00;;;;;;;18.19;83.62;100212.66;4982087;28;20080;-70
2023/06/12 00:04:33;;;;;;;0.00;0.00;;;;;;;18.14;83.68;100216.41;4984046;28;20034;-71
2023/06/12 00:07:01;;;;;;;0.00;0.00;;;;;;;18.02;84.81;100213.44;4979707;28;20071;-71
2023/06/12 00:09:27;;;;;;;0.00;0.00;;;;;;;18.03;84.47;100220.59;4996027;28;20060;-72
2023/06/12 00:11:53;;;;;;;0.00;0.00;;;;;;;17.88;85.15;100219.88;4994600;28;20038;-70
2023/06/12 00:14:18;;;;;;;0.00;0.00;;;;;;;17.87;86.00;100223.81;4992878;28;20034;-70
2023/06/12 00:16:44;;;;;;;0.00;0.00;;;;;;;17.82;85.58;100226.69;5018220;28;20034;-70
2023/06/12 00:29:15;;;;;;;0.00;0.00;;;;;;;17.68;86.13;100212.97;4994066;28;20700;-71
2023/06/12 00:31:40;;;;;;;0.00;0.00;;;;;;;17.63;86.49;100219.44;5002954;28;20030;-71
2023/06/12 00:34:05;;;;;;;0.00;0.00;;;;;;;17.56;86.60;100213.56;4993975;28;20026;-71
2023/06/12 00:36:31;;;;;;;0.00;0.00;;;;;;;17.50;86.61;100219.56;4984550;28;20575;-70
2023/06/12 00:38:56;;;;;;;0.00;0.00;;;;;;;17.44;86.69;100221.66;4990785;28;20912;-69
2023/06/12 00:41:22;;;;;;;0.00;0.00;;;;;;;17.39;86.70;100213.47;5001346;28;20153;-71
2023/06/12 00:43:48;;;;;;;0.00;0.00;;;;;;;17.38;86.74;100222.94;5005428;28;20044;-70
2023/06/12 00:46:14;;;;;;;0.00;0.00;;;;;;;17.33;87.57;100220.28;4989390;28;20490;-70
2023/06/12 00:48:40;;;;;;;0.00;0.00;;;;;;;17.27;87.25;100217.66;5008425;28;20421;-70
2023/06/12 00:51:08;;;;;;;0.00;0.00;;;;;;;17.31;87.02;100222.56;5000452;28;20108;-71
2023/06/12 00:53:34;;;;;;;0.00;0.00;;;;;;;17.35;87.61;100224.38;4985948;28;20104;-71
2023/06/12 00:56:00;;;;;;;0.00;0.00;;;;;;;17.50;86.96;100220.38;4986137;28;20030;-71
2023/06/12 00:58:26;;;;;;;0.00;0.00;;;;;;;17.65;86.41;100223.84;5000144;28;20499;-72
2023/06/12 01:00:54;;;;;;;0.00;0.00;;;;;;;17.79;86.17;100227.34;5004755;28;20045;-72
2023/06/12 01:03:22;;;;;;;0.00;0.00;;;;;;;17.88;85.62;100219.88;4987381;28;20022;-71
2023/06/12 01:05:47;;;;;;;0.00;0.00;;;;;;;17.99;85.46;100214.06;5000108;28;20033;-71
2023/06/12 01:08:19;;;;;;;0.00;0.00;;;;;;;18.08;84.84;100223.25;5002629;28;20753;-71
2023/06/12 01:10:53;;;;;;;0.00;0.00;;;;;;;18.16;85.11;100219.66;5024722;28;20029;-71
2023/06/12 01:13:20;;;;;;;0.00;0.00;;;;;;;18.19;85.05;100227.31;5001799;28;20494;-73
2023/06/12 01:15:46;;;;;;;0.00;0.00;;;;;;;18.18;84.70;100219.34;5002759;28;20045;-71
2023/06/12 01:18:11;;;;;;;0.00;0.00;;;;;;;18.09;84.63;100219.31;5007517;28;20030;-70
2023/06/12 01:20:37;;;;;;;0.00;0.00;;;;;;;17.91;84.97;100219.25;4993089;28;20022;-71
2023/06/12 01:23:14;;;;;;;0.00;0.00;;;;;;;17.70;85.84;100213.47;5002644;28;20526;-70
2023/06/12 01:25:46;;;;;;;0.00;0.00;;;;;;;17.56;86.40;100212.75;5000354;28;20116;-71
2023/06/12 01:28:43;;;;;;;0.00;0.00;;;;;;;17.45;86.63;100213.03;5001076;28;20353;-71
2023/06/12 01:31:50;;;;;;;0.00;0.00;;;;;;;17.31;87.36;100211.50;4970841;28;20370;-70
2023/06/12 01:34:24;;;;;;;0.00;0.00;;;;;;;17.17;87.69;100201.34;4980046;28;20477;-70
2023/06/12 01:37:05;;;;;;;0.00;0.00;;;;;;;17.06;87.80;100194.44;5005124;28;20022;-71
2023/06/12 01:39:39;;;;;;;0.00;0.00;;;;;;;16.97;88.02;100197.16;4997457;28;20400;-70
2023/06/12 01:42:07;;;;;;;0.00;0.00;;;;;;;16.89;88.58;100189.63;5003147;28;20030;-71
2023/06/12 01:44:33;;;;;;;0.00;0.00;;;;;;;16.88;88.61;100190.72;5006952;28;20034;-70
2023/06/12 01:46:58;;;;;;;0.00;0.00;;;;;;;16.81;89.35;100188.41;5004973;28;20096;-71
2023/06/12 01:49:23;;;;;;;0.00;0.00;;;;;;;16.84;89.38;100193.28;5005847;28;20037;-72
2023/06/12 01:51:49;;;;;;;0.00;0.00;;;;;;;16.84;89.71;100198.00;4998070;28;20038;-72
2023/06/12 01:54:15;;;;;;;0.00;0.00;;;;;;;16.82;89.98;100191.97;4998874;28;20030;-74
2023/06/12 01:56:42;;;;;;;0.00;0.00;;;;;;;16.76;89.66;100185.75;4995609;28;20026;-71
2023/06/12 01:59:08;;;;;;;0.00;0.00;;;;;;;16.65;89.87;100185.19;4995704;28;20076;-71
2023/06/12 02:01:33;;;;;;;0.00;0.00;;;;;;;16.61;89.65;100188.91;4994064;28;20062;-72
2023/06/12 02:03:59;;;;;;;0.00;0.00;;;;;;;16.52;89.96;100183.31;5015576;28;20037;-70
2023/06/12 02:06:25;;;;;;;0.00;0.00;;;;;;;16.48;89.96;100191.38;4993824;28;20023;-71
2023/06/12 02:08:50;;;;;;;0.00;0.00;;;;;;;16.43;90.18;100185.16;4991952;28;20345;-70
2023/06/12 02:11:16;;;;;;;0.00;0.00;;;;;;;16.33;90.61;100183.47;5014816;28;20456;-70
2023/06/12 02:13:42;;;;;;;0.00;0.00;;;;;;;16.31;90.40;100191.22;4997073;28;21053;-71
2023/06/12 02:16:07;;;;;;;0.00;0.00;;;;;;;16.26;90.34;100191.34;5001753;28;20029;-70
2023/06/12 02:18:33;;;;;;;0.00;0.00;;;;;;;16.19;90.45;100177.97;4998221;28;20033;-70
2023/06/12 02:20:59;;;;;;;0.00;0.00;;;;;;;16.19;91.06;100178.81;5008935;28;20064;-71
2023/06/12 02:23:25;;;;;;;0.00;0.00;;;;;;;16.19;91.19;100172.44;5002037;28;20124;-71
2023/06/12 02:25:50;;;;;;;0.00;0.00;;;;;;;16.25;91.68;100185.00;4995998;28;20116;-69
2023/06/12 02:28:16;;;;;;;0.00;0.00;;;;;;;16.26;91.51;100177.56;5004702;28;20025;-71
2023/06/12 02:30:41;;;;;;;0.00;0.00;;;;;;;16.26;91.86;100180.31;5003590;28;20033;-71
2023/06/12 02:33:09;;;;;;;0.00;0.00;;;;;;;16.26;91.93;100177.56;5008540;28;20084;-70
2023/06/12 02:35:38;;;;;;;0.00;0.00;;;;;;;16.27;91.83;100180.00;4985291;28;20033;-70
2023/06/12 02:38:04;;;;;;;0.00;0.00;;;;;;;16.36;91.38;100189.16;4996808;28;20053;-69
2023/06/12 02:40:30;;;;;;;0.00;0.00;;;;;;;16.40;91.22;100181.09;4998849;28;20444;-72
2023/06/12 02:42:55;;;;;;;0.00;0.00;;;;;;;16.40;90.99;100181.91;4998740;28;20030;-71
2023/06/12 02:45:22;;;;;;;0.00;0.00;;;;;;;16.42;91.05;100198.16;4995849;28;20021;-71
2023/06/12 02:47:47;;;;;;;0.00;0.00;;;;;;;16.37;91.39;100192.75;4989173;28;20030;-71
2023/06/12 02:50:12;;;;;;;0.00;0.00;;;;;;;16.37;91.52;100190.00;4997663;28;20026;-72
2023/06/12 02:52:40;;;;;;;0.00;0.00;;;;;;;16.38;91.55;100194.38;5005050;28;20472;-71
2023/06/12 02:55:06;;;;;;;0.00;0.00;;;;;;;16.27;91.80;100181.97;4998501;28;20033;-72
2023/06/12 02:57:32;;;;;;;0.00;0.00;;;;;;;16.19;92.33;100189.00;5005627;28;20036;-71
2023/06/12 02:59:57;;;;;;;0.00;0.00;;;;;;;16.10;92.42;100186.16;4987765;28;20025;-71
2023/06/12 03:02:23;;;;;;;0.00;0.00;;;;;;;16.09;92.84;100195.56;5003174;28;20024;-72
2023/06/12 03:04:48;;;;;;;0.00;0.00;;;;;;;16.04;93.08;100187.41;4988599;28;20034;-72
2023/06/12 03:07:16;;;;;;;0.00;0.00;;;;;;;15.99;93.43;100188.31;4993582;28;20099;-70
2023/06/12 03:09:45;;;;;;;0.00;0.00;;;;;;;15.92;93.11;100196.19;4998367;28;20145;-71
2023/06/12 03:12:10;;;;;;;0.00;0.00;;;;;;;15.87;93.43;100188.84;4996760;28;20022;-71
2023/06/12 03:14:36;;;;;;;0.00;0.00;;;;;;;15.87;93.49;100186.09;5017437;28;20019;-72
2023/06/12 03:17:02;;;;;;;0.00;0.00;;;;;;;15.86;93.69;100187.22;4994053;28;21186;-71
2023/06/12 03:19:27;;;;;;;0.00;0.00;;;;;;;15.85;93.47;100185.56;5001989;28;20069;-70
2023/06/12 03:21:53;;;;;;;0.00;0.00;;;;;;;15.87;94.03;100194.38;4993008;28;20495;-70
2023/06/12 03:24:20;;;;;;;0.00;0.00;;;;;;;15.88;93.37;100178.63;5008071;28;20036;-69
2023/06/12 03:26:47;;;;;;;0.00;0.00;;;;;;;15.88;93.78;100171.16;5003921;28;20065;-71
2023/06/12 03:29:13;;;;;;;0.00;0.00;;;;;;;15.94;93.92;100176.59;4995776;28;20034;-71
2023/06/12 03:31:38;;;;;;;0.00;0.00;;;;;;;15.93;94.00;100175.78;5011865;28;20034;-72
2023/06/12 03:34:05;;;;;;;0.00;0.00;;;;;;;15.97;93.69;100170.44;5013900;28;20030;-71
2023/06/12 03:36:39;;;;;;;0.00;0.00;;;;;;;15.98;94.40;100172.91;4989121;28;20109;-71
2023/06/12 03:39:07;;;;;;;;;;;;;;;16.00;94.20;100175.34;4998761;28;20054;-71
2023/06/12 03:41:34;;;;;;;0.00;0.00;;;;;;;16.00;93.72;100175.34;5009622;28;20020;-70
2023/06/12 03:44:00;;;;;;;0.00;0.00;;;;;;;15.99;93.94;100173.69;5016220;28;20118;-71
2023/06/12 03:46:26;;;;;;;0.00;0.00;;;;;;;15.98;94.07;100177.59;4988624;28;20034;-72
2023/06/12 03:48:51;;;;;;;0.00;0.00;;;;;;;15.96;93.66;100180.66;5016753;28;20037;-70
2023/06/12 03:51:17;;;;;;;0.00;0.00;;;;;;;15.96;93.97;100174.31;5003889;28;20026;-70
2023/06/12 03:53:42;;;;;;;0.00;0.00;;;;;;;15.90;94.60;100170.84;4997976;28;20110;-70
2023/06/12 03:56:07;;;;;;;0.00;0.00;;;;;;;15.93;94.30;100170.25;4999280;28;20980;-71
2023/06/12 03:58:33;;;;;;;0.00;0.00;;;;;;;15.90;94.20;100167.28;4989599;28;20026;-71
2023/06/12 04:00:59;;;;;;;0.00;0.00;;;;;;;15.91;94.47;100177.19;5018651;28;20089;-71
2023/06/12 04:03:25;;;;;;;0.00;0.00;;;;;;;15.93;94.57;100174.94;4994538;28;20533;-71
2023/06/12 04:05:51;;;;;;;0.00;0.00;;;;;;;15.90;94.41;100175.56;4994989;28;20036;-71
2023/06/12 04:08:16;;;;;;;0.00;0.00;;;;;;;15.92;94.27;100173.34;5002170;28;20456;-70
2023/06/12 04:10:43;;;;;;;0.00;0.00;;;;;;;15.91;94.21;100177.19;4996499;28;20492;-71
2023/06/12 04:13:08;;;;;;;0.00;0.00;;;;;;;15.89;94.51;100174.75;4999993;28;20129;-70
2023/06/12 04:15:36;;;;;;;0.00;0.00;;;;;;;15.90;94.53;100175.56;5000624;28;20389;-72
2023/06/12 04:18:04;;;;;;;0.00;0.00;;;;;;;15.91;94.41;100171.69;5007210;28;20115;-72
2023/06/12 04:20:32;;;;;;;0.00;0.00;;;;;;;15.97;94.71;100181.47;4978116;28;20030;-71
2023/06/12 04:22:57;;;;;;;0.00;0.00;;;;;;;15.96;94.13;100179.84;5000508;28;20053;-71
2023/06/12 04:25:25;;;;;;;0.00;0.00;;;;;;;15.93;94.75;100173.03;4999412;28;20061;-71
2023/06/12 04:27:51;;;;;;;0.00;0.00;;;;;;;15.93;94.35;100186.81;4997267;28;20499;-72
2023/06/12 04:30:16;;;;;;;0.00;0.00;;;;;;;15.92;94.35;100184.38;5003891;28;20026;-70
2023/06/12 04:32:42;;;;;;;0.00;0.00;;;;;;;15.86;94.14;100192.72;4992976;28;20034;-70
2023/06/12 04:35:08;;;;;;;0.00;0.00;;;;;;;15.81;94.54;100201.13;4994334;28;20031;-70
2023/06/12 04:37:33;;;;;;;0.00;0.00;;;;;;;15.77;94.17;100200.06;4998084;28;20053;-69
2023/06/12 04:39:58;;;;;;;0.00;0.00;;;;;;;15.77;94.44;100205.56;5011894;28;20048;-70
2023/06/12 04:42:25;;;;;;;0.00;0.00;;;;;;;15.74;94.26;100200.69;4980642;28;20468;-70
2023/06/12 04:44:53;;;;;;;0.00;0.00;;;;;;;15.68;94.71;100201.88;4989422;28;20100;-70
2023/06/12 04:47:20;;;;;;;0.00;0.00;;;;;;;15.62;94.72;100198.41;4992526;28;20137;-69
2023/06/12 04:49:45;;;;;;;0.00;0.00;;;;;;;15.63;94.65;100210.25;5011127;28;20022;-71
2023/06/12 04:52:12;;;;;;;0.00;0.00;;;;;;;15.64;94.65;100207.19;5007284;28;20092;-73
2023/06/12 04:54:44;;;;;;;0.00;0.00;;;;;;;15.66;94.72;100209.66;5000727;28;20034;-71
2023/06/12 04:57:13;;;;;;;0.00;0.00;;;;;;;15.68;94.64;100213.72;5005144;28;20373;-71
2023/06/12 04:59:44;;;;;;;0.00;0.00;;;;;;;15.68;94.35;100212.91;4991082;28;20661;-71
2023/06/12 05:02:10;;;;;;;0.00;0.00;;;;;;;15.71;94.46;100229.66;4992368;28;20431;-71
2023/06/12 05:04:37;;;;;;;0.00;0.00;;;;;;;15.72;94.06;100219.44;5002048;28;20041;-70
2023/06/12 05:07:04;;;;;;;0.00;0.00;;;;;;;15.77;94.12;100216.59;4999000;28;20026;-70
2023/06/12 05:09:30;;;;;;;0.00;0.00;;;;;;;15.85;93.93;100224.16;5000325;28;20052;-69
2023/06/12 05:11:56;;;;;;;0.00;0.00;;;;;;;15.89;93.18;100218.88;4997774;28;20420;-70
2023/06/12 05:14:22;;;;;;;0.00;0.00;;;;;;;16.01;93.28;100226.63;5010263;28;20113;-70
2023/06/12 05:16:48;;;;;;;0.00;0.00;;;;;;;16.10;92.99;100219.25;4997451;28;20038;-70
2023/06/12 05:19:14;;;;;;;0.00;0.00;;;;;;;16.15;92.46;100213.66;5012568;28;20109;-69
2023/06/12 05:21:41;;;;;;;0.00;0.00;;;;;;;16.22;92.41;100211.28;4999859;28;20070;-70
2023/06/12 05:24:07;;;;;;;0.00;0.00;;;;;;;16.33;92.06;100227.63;4987046;28;20104;-70
2023/06/12 05:26:33;;;;;;;0.00;0.00;;;;;;;16.37;91.42;100218.41;5010391;28;20078;-70
2023/06/12 05:28:58;;;;;;;0.00;0.00;;;;;;;16.48;91.32;100213.44;5000690;28;20135;-68
2023/06/12 05:31:24;;;;;;;0.00;0.00;;;;;;;16.61;91.13;100213.75;5000213;28;20478;-69
2023/06/12 05:33:49;;;;;;;0.00;0.00;;;;;;;16.68;90.90;100205.84;4998417;28;20575;-69
2023/06/12 05:36:15;;;;;;;0.00;0.00;;;;;;;16.71;90.92;100200.50;5000809;28;20416;-70
2023/06/12 05:38:46;;;;;;;0.00;0.00;;;;;;;16.83;90.86;100208.22;5006212;28;20054;-69
2023/06/12 05:41:15;;;;;;;0.00;0.00;;;;;;;16.89;90.35;100207.03;4988899;28;20030;-69
2023/06/12 05:43:44;;;;;;;0.00;0.00;;;;;;;16.95;90.47;100202.16;5013497;28;20496;-71
2023/06/12 05:46:10;;;;;;;0.00;0.00;;;;;;;17.00;90.81;100206.75;4991592;28;20484;-70
2023/06/12 05:48:36;;;;;;;0.00;0.00;;;;;;;17.10;90.45;100200.97;5013365;28;20041;-70
2023/06/12 05:51:02;;;;;;;0.00;0.00;;;;;;;17.21;90.40;100213.38;5004801;28;20034;-70
2023/06/12 05:53:28;;;;;;;0.00;0.00;;;;;;;17.34;90.26;100213.63;5003128;28;20037;-70
2023/06/12 05:55:55;;;;;;;0.00;0.00;;;;;;;17.41;89.14;100208.47;5003246;28;20481;-71
2023/06/12 05:58:21;;;;;;;0.00;0.00;;;;;;;17.55;89.40;100220.25;4997605;28;20031;-70
2023/06/12 06:00:49;;;;;;;0.00;0.00;;;;;;;17.65;88.45;100221.09;4997418;28;20052;-70
2023/06/12 06:03:15;;;;;;;0.00;0.00;;;;;;;17.74;88.36;100213.63;4994733;28;20045;-69
2023/06/12 06:05:41;;;;;;;0.00;0.00;;;;;;;17.82;88.25;100215.63;5019250;28;20484;-70
2023/06/12 06:08:06;;;;;;;0.00;0.00;;;;;;;17.96;88.38;100224.66;4994491;28;20050;-69
2023/06/12 06:10:31;;;;;;;0.00;0.00;;;;;;;18.09;87.80;100224.84;5003919;28;20117;-75
2023/06/12 06:12:57;;;;;;;0.00;0.00;;;;;;;18.22;86.93;100218.34;4999320;28;20030;-76
2023/06/12 06:15:23;;;;;;;0.00;0.00;;;;;;;18.31;86.47;100221.97;4968741;28;20038;-75
2023/06/12 06:17:48;;;;;;;0.00;0.00;;;;;;;18.30;85.93;100209.28;4979479;28;20038;-75
2023/06/12 06:20:14;;;;;;;0.00;0.00;;;;;;;18.34;85.66;100228.81;4993595;28;20041;-77
2023/06/12 06:22:41;;;;;;;0.00;0.00;;;;;;;18.39;85.71;100223.13;4967586;28;20030;-76
2023/06/12 06:25:09;;;;;;;0.00;0.00;;;;;;;18.60;85.25;100228.84;4976688;28;20117;-77
2023/06/12 06:27:34;;;;;;;0.00;0.00;;;;;;;18.76;84.68;100236.66;4988377;28;20471;-77
2023/06/12 06:30:00;;;;;;;0.00;0.00;;;;;;;18.83;84.56;100234.22;5000065;28;20113;-75
2023/06/12 06:32:26;;;;;;;0.00;0.00;;;;;;;18.96;84.18;100230.50;4996256;28;20022;-75
2023/06/12 06:34:52;;;;;;;0.00;0.00;;;;;;;19.07;83.34;100227.38;4975008;28;20045;-74
2023/06/12 06:37:17;;;;;;;0.00;0.00;;;;;;;19.12;83.20;100224.44;4975629;28;20037;-76
2023/06/12 06:39:43;;;;;;;0.00;0.00;;;;;;;19.20;83.02;100220.81;4987406;28;20066;-76
2023/06/12 06:42:08;;;;;;;0.00;0.00;;;;;;;19.35;82.89;100225.84;5008046;28;20042;-77
2023/06/12 06:44:34;;;;;;;0.00;0.00;;;;;;;19.54;82.42;100233.00;5013777;28;20044;-77
2023/06/12 06:47:22;;;;;;;0.00;0.00;;;;;;;19.57;81.83;100210.13;5001424;28;20026;-76
2023/06/12 06:50:30;;;;;;;0.00;0.00;;;;;;;19.92;81.23;100232.22;5004506;28;20065;-76
2023/06/12 06:52:55;;;;;;;0.00;0.00;;;;;;;19.91;80.66;100208.38;4992850;28;20467;-76
2023/06/12 06:55:28;;;;;;;0.00;0.00;;;;;;;20.16;80.15;100230.78;5015720;28;20137;-77
2023/06/12 06:57:54;;;;;;;0.00;0.00;;;;;;;20.10;79.60;100212.69;4992660;28;20042;-76
2023/06/12 07:00:23;;;;;;;0.00;0.00;;;;;;;20.20;79.26;100226.19;5002123;28;20029;-77
2023/06/12 07:02:49;;;;;;;0.00;0.00;;;;;;;20.42;78.95;100236.16;5002567;28;20053;-77
2023/06/12 07:05:15;;;;;;;0.00;0.00;;;;;;;20.60;78.31;100234.06;4998169;28;20080;-76
2023/06/12 07:07:43;;;;;;;0.00;0.00;;;;;;;20.76;77.92;100225.97;5002744;28;20473;-76
2023/06/12 07:10:08;;;;;;;0.00;0.00;;;;;;;20.89;76.92;100210.97;5000132;28;20044;-80
2023/06/12 07:12:34;;;;;;;0.00;0.00;;;;;;;21.05;76.44;100215.91;5014812;28;20352;-76
2023/06/12 07:15:00;;;;;;;0.00;0.00;;;;;;;21.27;75.71;100234.16;5005542;28;20030;-78
2023/06/12 07:17:25;;;;;;;0.00;0.00;;;;;;;21.33;75.51;100238.34;4994213;28;20523;-79
2023/06/12 07:19:50;;;;;;;0.00;0.00;;;;;;;21.36;75.25;100225.72;4995610;28;20040;-76
2023/06/12 07:22:16;;;;;;;0.00;0.00;;;;;;;21.42;75.26;100224.34;4966177;28;20042;-76
2023/06/12 07:24:41;;;;;;;0.00;0.00;;;;;;;21.49;74.83;100226.56;5006512;28;20427;-76
2023/06/12 07:27:07;;;;;;;0.00;0.00;;;;;;;21.56;74.65;100229.63;5002437;28;20034;-76
2023/06/12 07:29:32;;;;;;;0.00;0.00;;;;;;;21.74;73.96;100224.66;4997396;28;20085;-77
2023/06/12 07:31:58;;;;;;;0.00;0.00;;;;;;;21.89;73.47;100232.31;5000287;28;20021;-76
2023/06/12 07:34:23;;;;;;;0.00;0.00;;;;;;;21.92;72.64;100231.63;4998425;28;20453;-79
2023/06/12 07:36:49;;;;;;;0.00;0.00;;;;;;;21.92;72.59;100230.81;4997753;28;20040;-77
2023/06/12 07:39:14;;;;;;;0.00;0.00;;;;;;;22.24;72.00;100226.28;4992515;28;20060;-77
2023/06/12 07:41:42;;;;;;;0.00;0.00;;;;;;;22.47;71.24;100228.56;4990892;28;20069;-76
2023/06/12 07:44:08;;;;;;;0.00;0.00;;;;;;;22.76;70.32;100213.50;4993182;28;20026;-77
2023/06/12 07:46:34;;;;;;;0.00;0.00;;;;;;;23.15;69.20;100235.34;5002606;28;20041;-76
2023/06/12 07:48:59;;;;;;;0.00;0.00;;;;;;;23.26;68.44;100232.84;4991595;28;20077;-76
2023/06/12 07:51:25;;;;;;;0.00;0.00;;;;;;;23.42;67.49;100236.47;5001988;28;20097;-75
2023/06/12 07:53:50;;;;;;;0.00;0.00;;;;;;;23.70;66.61;100235.59;5002087;28;20026;-75
2023/06/12 07:56:17;;;;;;;0.00;0.00;;;;;;;24.21;65.57;100238.47;4969869;28;20041;-75
2023/06/12 07:58:44;;;;;;;0.00;0.00;;;;;;;24.44;63.79;100243.34;5000187;28;20021;-76
2023/06/12 08:01:10;;;;;;;0.00;0.00;;;;;;;24.29;62.59;100236.63;4995385;28;20081;-76
2023/06/12 08:03:39;;;;;;;0.00;0.00;;;;;;;24.12;62.94;100237.81;4995628;28;20468;-77
2023/06/12 08:06:12;;;;;;;0.00;0.00;;;;;;;23.91;62.90;100231.75;4999080;28;20045;-72
2023/06/12 08:08:40;;;;;;;0.00;0.00;;;;;;;23.75;63.97;100235.31;4984665;28;20092;-72
2023/06/12 08:11:06;;;;;;;0.00;0.00;;;;;;;23.63;64.44;100238.22;5000561;28;20109;-72
2023/06/12 08:13:32;;;;;;;0.00;0.00;;;;;;;23.49;65.56;100235.84;4992903;28;20388;-71
2023/06/12 08:15:58;;;;;;;0.00;0.00;;;;;;;23.30;65.74;100226.19;5002648;28;20037;-71
2023/06/12 08:18:23;;;;;;;0.00;0.00;;;;;;;23.14;66.34;100231.75;4987956;28;20026;-71
2023/06/12 08:20:48;;;;;;;0.00;0.00;;;;;;;23.06;66.70;100238.25;4990766;28;20600;-72
2023/06/12 08:23:14;;;;;;;0.00;0.00;;;;;;;22.98;67.14;100234.47;4996332;28;20034;-71
2023/06/12 08:25:39;;;;;;;0.00;0.00;;;;;;;22.93;67.54;100229.13;5004142;28;20038;-71
2023/06/12 08:28:05;;;;;;;0.00;0.00;;;;;;;22.95;67.83;100235.16;4991537;28;20030;-72
2023/06/12 08:30:34;;;;;;;0.00;0.00;;;;;;;23.10;67.37;100233.63;4987671;28;20031;-71
2023/06/12 08:32:59;;;;;;;0.00;0.00;;;;;;;23.27;66.46;100235.28;4987260;28;20041;-69
2023/06/12 08:35:25;;;;;;;0.00;0.00;;;;;;;23.46;66.12;100234.56;4988666;28;20038;-69
2023/06/12 08:37:50;;;;;;;0.00;0.00;;;;;;;23.54;65.58;100227.22;5004239;28;20037;-70
2023/06/12 08:40:16;;;;;;;0.00;0.00;;;;;;;23.66;64.77;100227.13;4976839;28;20412;-69
2023/06/12 08:42:49;;;;;;;0.00;0.00;;;;;;;23.75;64.18;100224.16;5010359;28;20038;-68
2023/06/12 08:45:16;;;;;;;0.00;0.00;;;;;;;23.74;63.67;100239.28;5007101;28;20385;-72
2023/06/12 08:47:46;;;;;;;0.00;0.00;;;;;;;23.88;63.04;100234.06;5012527;28;20061;-70
2023/06/12 08:50:12;;;;;;;0.00;0.00;;;;;;;24.09;62.50;100238.56;5002026;28;20025;-69
2023/06/12 08:52:39;;;;;;;0.00;0.00;;;;;;;24.21;62.37;100224.50;4993264;28;20338;-70
2023/06/12 08:55:07;;;;;;;0.00;0.00;;;;;;;24.22;61.88;100234.50;4995402;28;20033;-69
2023/06/12 08:57:35;;;;;;;0.00;0.00;;;;;;;24.29;61.58;100235.84;4979565;28;20699;-71
2023/06/12 09:00:01;;;;;;;0.00;0.00;;;;;;;24.50;61.53;100247.50;4987712;28;20038;-71
2023/06/12 09:02:27;;;;;;;0.00;0.00;;;;;;;24.67;60.99;100235.09;4987172;28;20034;-71
2023/06/12 09:05:14;;;;;;;0.00;0.00;;;;;;;24.75;60.42;100233.28;4970075;28;20022;-70
2023/06/12 09:07:44;;;;;;;0.00;0.00;;;;;;;25.12;60.33;100237.63;4999509;28;20045;-71
2023/06/12 09:10:10;;;;;;;0.00;0.00;;;;;;;25.50;59.57;100242.34;4999331;28;20041;-72
2023/06/12 09:12:35;;;;;;;0.00;0.00;;;;;;;25.71;58.15;100229.91;4998857;28;20030;-69
2023/06/12 09:15:01;;;;;;;0.00;0.00;;;;;;;25.91;58.04;100239.84;4999217;28;20375;-69
2023/06/12 09:17:28;;;;;;;0.00;0.00;;;;;;;26.25;57.57;100228.78;5023868;28;20038;-69
2023/06/12 09:19:54;;;;;;;0.00;0.00;;;;;;;26.59;57.32;100223.28;5003595;28;20049;-69
2023/06/12 09:22:21;;;;;;;0.00;0.00;;;;;;;26.99;57.12;100235.81;4998696;28;20060;-69
2023/06/12 09:24:47;;;;;;;0.00;0.00;;;;;;;27.14;56.24;100224.75;4996364;28;20041;-68
2023/06/12 09:27:12;;;;;;;0.00;0.00;;;;;;;27.31;55.95;100234.56;4997206;28;20026;-70
2023/06/12 09:29:42;;;;;;;0.00;0.00;;;;;;;27.47;56.16;100225.91;4990083;28;20061;-69
2023/06/12 09:32:14;;;;;;;0.00;0.00;;;;;;;27.72;55.44;100231.75;4999046;28;20117;-68
2023/06/12 09:34:48;;;;;;;0.00;0.00;;;;;;;27.60;54.22;100229.22;4977842;28;20034;-70
2023/06/12 09:37:15;;;;;;;0.00;0.00;;;;;;;27.22;54.78;100231.22;4984562;28;20018;-70
2023/06/12 09:39:41;;;;;;;0.00;0.00;;;;;;;27.26;53.82;100235.72;4987994;28;20050;-70
2023/06/12 09:42:07;;;;;;;0.00;0.00;;;;;;;27.49;53.36;100223.53;4990371;28;20026;-69
2023/06/12 09:44:32;;;;;;;0.00;0.00;;;;;;;27.88;53.23;100234.31;5015126;28;20375;-69
2023/06/12 09:47:05;;;;;;;0.00;0.00;;;;;;;27.94;51.19;100238.34;4998055;28;20034;-69
2023/06/12 09:49:31;;;;;;;0.00;0.00;;;;;;;28.04;51.87;100248.91;4992406;28;20029;-68
2023/06/12 09:52:05;;;;;;;0.00;0.00;;;;;;;27.99;51.09;100252.09;5001319;28;20126;-69
2023/06/12 09:54:31;;;;;;;0.00;0.00;;;;;;;28.02;50.76;100259.72;4981611;28;20034;-68
2023/06/12 09:56:59;;;;;;;0.00;0.00;;;;;;;28.15;50.81;100265.84;4992691;28;20042;-70
2023/06/12 09:59:27;;;;;;;0.00;0.00;;;;;;;28.39;50.01;100257.97;4987493;28;20026;-69
2023/06/12 10:02:00;;;;;;;0.00;0.00;;;;;;;28.92;50.46;100253.06;4991564;28;20066;-68
2023/06/12 10:04:45;;;;;;;0.00;0.00;;;;;;;29.80;49.43;100259.28;4999530;28;20037;-70
2023/06/12 10:07:19;;;;;;;0.00;0.00;;;;;;;30.43;48.23;100251.25;4997381;28;20360;-68
2023/06/12 10:09:47;;;;;;;0.00;0.00;;;;;;;30.22;47.13;100251.25;4985262;28;20022;-67
2023/06/12 10:12:13;;;;;;;0.00;0.00;;;;;;;30.23;45.98;100255.69;5011033;28;20022;-69
2023/06/12 10:14:39;;;;;;;0.00;0.00;;;;;;;30.48;45.94;100257.69;5003949;28;20076;-68
2023/06/12 10:17:07;;;;;;;0.00;0.00;;;;;;;31.18;45.14;100254.19;4993018;28;20037;-69
2023/06/12 10:19:35;;;;;;;0.00;0.00;;;;;;;31.65;44.60;100263.19;4995923;28;20156;-69
2023/06/12 10:22:01;;;;;;;0.00;0.00;;;;;;;31.76;44.07;100263.94;4988430;28;20125;-69
2023/06/12 10:24:29;;;;;;;0.00;0.00;;;;;;;31.69;43.01;100261.16;4989623;28;20081;-69
2023/06/12 10:26:56;;;;;;;0.00;0.00;;;;;;;31.33;41.80;100252.88;4999627;28;20431;-68
2023/06/12 10:29:33;;;;;;;0.00;0.00;;;;;;;30.79;43.21;100256.75;5008698;28;20100;-69
2023/06/12 10:32:09;;;;;;;0.00;0.00;;;;;;;30.77;43.88;100253.53;4987490;28;20027;-69
2023/06/12 10:34:40;;;;;;;0.00;0.00;;;;;;;30.77;42.89;100247.09;5007253;28;20084;-68
2023/06/12 10:37:25;;;;;;;0.00;0.00;;;;;;;31.07;42.69;100255.03;4987881;28;20030;-70
2023/06/12 10:40:15;;;;;;;0.00;0.00;;;;;;;30.78;42.60;100252.34;5002170;28;20054;-70
2023/06/12 10:43:07;;;;;;;0.00;0.00;;;;;;;30.89;43.18;100262.78;4987453;28;20126;-69
2023/06/12 10:45:36;;;;;;;0.00;0.00;;;;;;;31.25;42.87;100248.50;4990497;28;20045;-68
2023/06/12 10:50:37;;;;;;;0.00;0.00;;;;;;;31.50;42.31;100249.13;4992864;28;20572;-69
2023/06/12 10:53:07;;;;;;;0.00;0.00;;;;;;;31.52;42.86;100245.91;5006409;28;20030;-69
2023/06/12 10:55:35;;;;;;;0.00;0.00;;;;;;;31.39;42.30;100248.41;4989168;28;20093;-68
2023/06/12 10:58:06;;;;;;;0.00;0.00;;;;;;;30.71;42.21;100243.91;4997729;28;20060;-68
2023/06/12 11:00:46;;;;;;;0.00;0.00;;;;;;;31.21;43.37;100242.09;4989067;28;20384;-69
2023/06/12 11:03:25;;;;;;;0.00;0.00;;;;;;;32.17;40.28;100243.41;4987490;28;20056;-69
2023/06/12 11:05:58;;;;;;;0.00;0.00;;;;;;;32.04;40.19;100236.63;4993952;28;20126;-70
2023/06/12 11:08:26;;;;;;;0.00;0.00;;;;;;;32.84;39.25;100248.75;4983977;28;20026;-68
2023/06/12 11:10:52;;;;;;;0.00;0.00;;;;;;;33.70;38.41;100234.56;4990487;28;20048;-69
2023/06/12 11:13:22;;;;;;;0.00;0.00;;;;;;;35.65;36.21;100237.97;4989496;28;20018;-69
2023/06/12 11:15:47;;;;;;;0.00;0.00;;;;;;;36.10;34.98;100241.34;5007690;28;20026;-69
2023/06/12 11:18:14;;;;;;;0.00;0.00;;;;;;;36.84;34.54;100234.03;4989185;28;20036;-68
2023/06/12 11:20:41;;;;;;;0.00;0.00;;;;;;;38.14;33.63;100241.28;4977018;28;20695;-70
2023/06/12 11:23:07;;;;;;;0.00;0.00;;;;;;;41.25;30.84;100232.97;4998594;28;20026;-70
2023/06/12 11:25:46;;;;;;;0.00;0.00;;;;;;;43.35;26.01;100230.09;4985853;28;20056;-68
2023/06/12 11:28:12;;;;;;;0.00;0.00;;;;;;;43.78;23.07;100238.31;4987683;28;20061;-68
2023/06/12 11:30:40;;;;;;;0.00;0.00;;;;;;;41.27;24.90;100222.59;4966592;28;20457;-69
2023/06/12 11:33:13;;;;;;;0.00;0.00;;;;;;;39.54;26.92;100218.03;4994359;28;20033;-69
2023/06/12 11:35:44;;;;;;;0.00;0.00;;;;;;;37.44;28.28;100226.91;4991460;28;20033;-69
2023/06/12 11:38:13;;;;;;;0.00;0.00;;;;;;;39.67;28.18;100215.88;5001592;28;20029;-69
2023/06/12 11:40:39;;;;;;;0.00;0.00;;;;;;;43.85;23.59;100229.25;4998733;28;20058;-69